CPX791 Details

Departure: Changi International Airport (WSSS)
Arrival: Kingsford Smith International Airport (YSSY) at N/A
Route: ANIT7B ANITO/M082F310 B470 PKP/N0496F310 L511 RUPKA/N0492F330 L511 TARUN T20 BRM/N0488F350 G222 AGAGO/N0483F370 G222 PKS H319 TARAL Y59 RIVET
Notes:


Current Weather Information
WSSS 171630Z 14011KT 9999 FEW018 BKN300 28/24 Q1011 NOSIG
YSSY 171630Z 33006KT CAVOK 11/08 Q1020 NOSIG